sensor_id;sensor_type;location;lat;lon;timestamp;pressure;altitude;pressure_sealevel;temperature;humidity
37170;BME280;23062;13.952;100.608;2023-04-10T00:00:23;1011.56;;;32.63;62.61
37170;BME280;23062;13.952;100.608;2023-04-10T00:04:49;1011.59;;;32.57;62.79
37170;BME280;23062;13.952;100.608;2023-04-10T00:09:14;1011.71;;;32.59;62.74
37170;BME280;23062;13.952;100.608;2023-04-10T00:13:39;1011.74;;;32.54;62.79
37170;BME280;23062;13.952;100.608;2023-04-10T00:18:03;1011.77;;;32.54;62.76
37170;BME280;23062;13.952;100.608;2023-04-10T00:22:32;1011.84;;;32.51;62.66
37170;BME280;23062;13.952;100.608;2023-04-10T00:27:02;1011.90;;;32.50;62.59
37170;BME280;23062;13.952;100.608;2023-04-10T00:31:28;1011.97;;;32.48;62.49
37170;BME280;23062;13.952;100.608;2023-04-10T00:35:54;1011.93;;;32.50;62.20
37170;BME280;23062;13.952;100.608;2023-04-10T00:40:19;1012.00;;;32.55;62.09
37170;BME280;23062;13.952;100.608;2023-04-10T00:44:44;1012.00;;;32.54;62.09
37170;BME280;23062;13.952;100.608;2023-04-10T00:49:11;1012.01;;;32.55;62.01
37170;BME280;23062;13.952;100.608;2023-04-10T00:53:36;1012.09;;;32.55;62.08
37170;BME280;23062;13.952;100.608;2023-04-10T00:58:05;1012.17;;;32.44;62.51
37170;BME280;23062;13.952;100.608;2023-04-10T01:02:33;1012.11;;;32.49;62.36
37170;BME280;23062;13.952;100.608;2023-04-10T01:07:20;1012.22;;;32.54;62.57
37170;BME280;23062;13.952;100.608;2023-04-10T01:11:59;1012.25;;;32.64;62.27
37170;BME280;23062;13.952;100.608;2023-04-10T01:16:25;1012.33;;;32.63;62.55
37170;BME280;23062;13.952;100.608;2023-04-10T01:20:50;1012.36;;;32.60;62.66
37170;BME280;23062;13.952;100.608;2023-04-10T01:30:06;1012.44;;;32.64;62.82
37170;BME280;23062;13.952;100.608;2023-04-10T01:34:45;1012.42;;;32.64;62.82
37170;BME280;23062;13.952;100.608;2023-04-10T01:39:08;1012.49;;;32.68;62.57
37170;BME280;23062;13.952;100.608;2023-04-10T01:43:34;1012.49;;;32.48;63.61
37170;BME280;23062;13.952;100.608;2023-04-10T01:47:59;1012.44;;;32.52;63.28
37170;BME280;23062;13.952;100.608;2023-04-10T01:52:29;1012.46;;;32.56;63.21
37170;BME280;23062;13.952;100.608;2023-04-10T01:56:55;1012.43;;;32.54;63.49
37170;BME280;23062;13.952;100.608;2023-04-10T02:01:21;1012.52;;;32.60;63.23
37170;BME280;23062;13.952;100.608;2023-04-10T02:10:36;1012.50;;;32.66;63.20
37170;BME280;23062;13.952;100.608;2023-04-10T02:15:00;1012.49;;;32.68;63.27
37170;BME280;23062;13.952;100.608;2023-04-10T02:19:27;1012.50;;;32.74;63.10
37170;BME280;23062;13.952;100.608;2023-04-10T02:23:52;1012.58;;;32.76;63.06
37170;BME280;23062;13.952;100.608;2023-04-10T02:28:19;1012.61;;;32.81;62.95
37170;BME280;23062;13.952;100.608;2023-04-10T02:32:47;1012.56;;;32.82;62.70
37170;BME280;23062;13.952;100.608;2023-04-10T02:37:19;1012.63;;;32.85;62.73
37170;BME280;23062;13.952;100.608;2023-04-10T02:41:44;1012.60;;;32.87;62.79
37170;BME280;23062;13.952;100.608;2023-04-10T02:46:11;1012.63;;;32.89;62.32
37170;BME280;23062;13.952;100.608;2023-04-10T02:50:37;1012.52;;;32.92;62.12
37170;BME280;23062;13.952;100.608;2023-04-10T02:55:02;1012.50;;;33.00;61.65
37170;BME280;23062;13.952;100.608;2023-04-10T02:59:26;1012.40;;;33.04;61.45
37170;BME280;23062;13.952;100.608;2023-04-10T03:03:51;1012.35;;;33.04;61.52
37170;BME280;23062;13.952;100.608;2023-04-10T03:08:16;1012.34;;;33.07;60.87
37170;BME280;23062;13.952;100.608;2023-04-10T03:12:41;1012.35;;;33.10;60.26
37170;BME280;23062;13.952;100.608;2023-04-10T03:17:06;1012.32;;;33.12;60.37
37170;BME280;23062;13.952;100.608;2023-04-10T03:21:32;1012.33;;;33.22;60.00
37170;BME280;23062;13.952;100.608;2023-04-10T03:25:57;1012.25;;;33.28;61.25
37170;BME280;23062;13.952;100.608;2023-04-10T03:30:25;1012.24;;;33.37;60.38
37170;BME280;23062;13.952;100.608;2023-04-10T03:34:51;1012.31;;;33.44;62.20
37170;BME280;23062;13.952;100.608;2023-04-10T03:39:16;1012.29;;;33.52;60.52
37170;BME280;23062;13.952;100.608;2023-04-10T03:43:41;1012.20;;;33.55;59.85
37170;BME280;23062;13.952;100.608;2023-04-10T03:48:06;1012.14;;;33.62;58.67
37170;BME280;23062;13.952;100.608;2023-04-10T03:52:34;1012.08;;;33.65;57.99
37170;BME280;23062;13.952;100.608;2023-04-10T03:56:59;1012.10;;;33.64;57.68
37170;BME280;23062;13.952;100.608;2023-04-10T04:01:24;1012.01;;;33.56;58.76
37170;BME280;23062;13.952;100.608;2023-04-10T04:05:48;1011.93;;;33.54;59.77
37170;BME280;23062;13.952;100.608;2023-04-10T04:10:14;1011.89;;;33.52;59.45
37170;BME280;23062;13.952;100.608;2023-04-10T04:14:41;1011.85;;;33.48;58.95
37170;BME280;23062;13.952;100.608;2023-04-10T04:19:15;1011.69;;;33.54;58.88
37170;BME280;23062;13.952;100.608;2023-04-10T04:23:40;1011.62;;;33.56;59.10
37170;BME280;23062;13.952;100.608;2023-04-10T04:28:06;1011.63;;;33.64;58.77
37170;BME280;23062;13.952;100.608;2023-04-10T04:32:32;1011.49;;;33.49;59.13
37170;BME280;23062;13.952;100.608;2023-04-10T04:37:00;1011.46;;;33.48;59.55
37170;BME280;23062;13.952;100.608;2023-04-10T04:41:28;1011.42;;;33.48;59.19
37170;BME280;23062;13.952;100.608;2023-04-10T04:46:01;1011.26;;;33.55;59.13
37170;BME280;23062;13.952;100.608;2023-04-10T04:50:29;1011.16;;;33.45;58.84
37170;BME280;23062;13.952;100.608;2023-04-10T04:54:54;1011.07;;;33.60;58.49
37170;BME280;23062;13.952;100.608;2023-04-10T04:59:26;1010.98;;;33.87;58.21
37170;BME280;23062;13.952;100.608;2023-04-10T05:03:54;1010.85;;;33.91;58.79
37170;BME280;23062;13.952;100.608;2023-04-10T05:08:19;1010.82;;;33.88;58.23
37170;BME280;23062;13.952;100.608;2023-04-10T05:12:44;1010.74;;;33.85;59.61
37170;BME280;23062;13.952;100.608;2023-04-10T05:17:13;1010.73;;;33.83;58.29
37170;BME280;23062;13.952;100.608;2023-04-10T05:21:39;1010.67;;;33.75;56.36
37170;BME280;23062;13.952;100.608;2023-04-10T05:26:07;1010.46;;;33.76;56.58
37170;BME280;23062;13.952;100.608;2023-04-10T05:30:32;1010.38;;;33.72;55.49
37170;BME280;23062;13.952;100.608;2023-04-10T05:34:57;1010.36;;;33.80;54.78
37170;BME280;23062;13.952;100.608;2023-04-10T05:39:22;1010.26;;;33.81;53.85
37170;BME280;23062;13.952;100.608;2023-04-10T05:43:47;1010.17;;;33.84;54.10
37170;BME280;23062;13.952;100.608;2023-04-10T05:48:12;1010.18;;;33.85;54.20
37170;BME280;23062;13.952;100.608;2023-04-10T05:52:39;1010.05;;;33.83;53.74
37170;BME280;23062;13.952;100.608;2023-04-10T05:57:03;1009.94;;;33.84;53.80
37170;BME280;23062;13.952;100.608;2023-04-10T06:01:32;1009.81;;;33.89;53.05
37170;BME280;23062;13.952;100.608;2023-04-10T06:05:59;1009.85;;;33.99;52.22
37170;BME280;23062;13.952;100.608;2023-04-10T06:10:23;1009.67;;;33.96;52.70
37170;BME280;23062;13.952;100.608;2023-04-10T06:14:47;1009.58;;;34.01;51.51
37170;BME280;23062;13.952;100.608;2023-04-10T06:19:12;1009.52;;;34.00;51.79
37170;BME280;23062;13.952;100.608;2023-04-10T06:23:37;1009.41;;;34.05;52.07
37170;BME280;23062;13.952;100.608;2023-04-10T06:28:03;1009.32;;;34.09;51.77
37170;BME280;23062;13.952;100.608;2023-04-10T06:32:27;1009.19;;;34.03;51.71
37170;BME280;23062;13.952;100.608;2023-04-10T06:36:52;1009.13;;;34.14;51.55
37170;BME280;23062;13.952;100.608;2023-04-10T06:41:19;1009.05;;;34.12;51.81
37170;BME280;23062;13.952;100.608;2023-04-10T06:45:44;1008.96;;;34.12;52.00
37170;BME280;23062;13.952;100.608;2023-04-10T06:50:09;1008.76;;;34.12;51.75
37170;BME280;23062;13.952;100.608;2023-04-10T06:54:34;1008.69;;;34.11;51.94
37170;BME280;23062;13.952;100.608;2023-04-10T06:58:59;1008.55;;;34.11;51.94
37170;BME280;23062;13.952;100.608;2023-04-10T07:03:24;1008.42;;;34.18;52.07
37170;BME280;23062;13.952;100.608;2023-04-10T07:07:50;1008.33;;;34.14;51.89
37170;BME280;23062;13.952;100.608;2023-04-10T07:12:19;1008.27;;;34.22;51.63
37170;BME280;23062;13.952;100.608;2023-04-10T07:16:47;1008.23;;;34.26;51.30
37170;BME280;23062;13.952;100.608;2023-04-10T07:21:12;1008.16;;;34.26;51.76
37170;BME280;23062;13.952;100.608;2023-04-10T07:25:42;1007.97;;;34.28;51.37
37170;BME280;23062;13.952;100.608;2023-04-10T07:30:09;1007.91;;;34.32;51.56
37170;BME280;23062;13.952;100.608;2023-04-10T07:34:34;1007.88;;;34.29;51.65
37170;BME280;23062;13.952;100.608;2023-04-10T07:39:02;1007.79;;;34.29;51.68
37170;BME280;23062;13.952;100.608;2023-04-10T07:43:26;1007.72;;;34.22;52.05
37170;BME280;23062;13.952;100.608;2023-04-10T07:47:53;1007.68;;;34.24;51.98
37170;BME280;23062;13.952;100.608;2023-04-10T07:52:22;1007.71;;;34.30;52.01
37170;BME280;23062;13.952;100.608;2023-04-10T07:56:47;1007.56;;;34.25;51.80
37170;BME280;23062;13.952;100.608;2023-04-10T08:01:15;1007.50;;;34.29;51.83
37170;BME280;23062;13.952;100.608;2023-04-10T08:05:40;1007.43;;;34.29;51.80
37170;BME280;23062;13.952;100.608;2023-04-10T08:10:06;1007.37;;;34.21;52.17
37170;BME280;23062;13.952;100.608;2023-04-10T08:14:33;1007.40;;;34.22;52.28
37170;BME280;23062;13.952;100.608;2023-04-10T08:18:59;1007.26;;;34.15;52.58
37170;BME280;23062;13.952;100.608;2023-04-10T08:23:24;1007.21;;;34.16;52.47
37170;BME280;23062;13.952;100.608;2023-04-10T08:27:49;1007.23;;;34.19;52.18
37170;BME280;23062;13.952;100.608;2023-04-10T08:32:14;1007.16;;;34.12;52.47
37170;BME280;23062;13.952;100.608;2023-04-10T08:36:39;1007.14;;;34.12;52.44
37170;BME280;23062;13.952;100.608;2023-04-10T08:41:04;1007.03;;;34.13;52.42
37170;BME280;23062;13.952;100.608;2023-04-10T08:45:33;1007.02;;;34.17;52.09
37170;BME280;23062;13.952;100.608;2023-04-10T08:50:00;1006.92;;;34.31;50.83
37170;BME280;23062;13.952;100.608;2023-04-10T08:54:28;1006.84;;;34.36;50.76
37170;BME280;23062;13.952;100.608;2023-04-10T08:58:53;1006.81;;;34.52;49.88
37170;BME280;23062;13.952;100.608;2023-04-10T09:03:18;1006.75;;;34.47;50.16
37170;BME280;23062;13.952;100.608;2023-04-10T09:07:43;1006.77;;;34.50;50.18
37170;BME280;23062;13.952;100.608;2023-04-10T09:12:08;1006.73;;;34.50;49.89
37170;BME280;23062;13.952;100.608;2023-04-10T09:16:33;1006.73;;;34.51;49.69
37170;BME280;23062;13.952;100.608;2023-04-10T09:21:09;1006.71;;;34.57;49.71
37170;BME280;23062;13.952;100.608;2023-04-10T09:25:44;1006.70;;;34.59;49.39
37170;BME280;23062;13.952;100.608;2023-04-10T09:30:10;1006.69;;;34.63;49.41
37170;BME280;23062;13.952;100.608;2023-04-10T09:39:36;1006.74;;;34.60;49.51
37170;BME280;23062;13.952;100.608;2023-04-10T09:44:11;1006.73;;;34.59;49.54
37170;BME280;23062;13.952;100.608;2023-04-10T09:48:41;1006.75;;;34.59;49.45
37170;BME280;23062;13.952;100.608;2023-04-10T09:53:13;1006.76;;;34.56;49.58
37170;BME280;23062;13.952;100.608;2023-04-10T09:57:35;1006.77;;;34.54;49.71
37170;BME280;23062;13.952;100.608;2023-04-10T10:02:00;1006.79;;;34.56;49.74
37170;BME280;23062;13.952;100.608;2023-04-10T10:06:30;1006.75;;;34.56;49.56
37170;BME280;23062;13.952;100.608;2023-04-10T10:10:56;1006.79;;;34.53;50.26
37170;BME280;23062;13.952;100.608;2023-04-10T10:15:42;1006.81;;;34.54;50.28
37170;BME280;23062;13.952;100.608;2023-04-10T10:20:07;1006.83;;;34.62;49.73
37170;BME280;23062;13.952;100.608;2023-04-10T10:24:32;1006.80;;;34.62;49.73
37170;BME280;23062;13.952;100.608;2023-04-10T10:29:01;1006.73;;;34.61;50.10
37170;BME280;23062;13.952;100.608;2023-04-10T10:33:34;1006.75;;;34.60;50.35
37170;BME280;23062;13.952;100.608;2023-04-10T10:38:01;1006.77;;;34.60;51.00
37170;BME280;23062;13.952;100.608;2023-04-10T10:47:28;1006.85;;;34.58;51.34
37170;BME280;23062;13.952;100.608;2023-04-10T10:51:52;1006.93;;;34.27;52.79
37170;BME280;23062;13.952;100.608;2023-04-10T11:10:13;1007.12;;;34.11;52.57
37170;BME280;23062;13.952;100.608;2023-04-10T11:14:39;1007.15;;;34.12;52.36
37170;BME280;23062;13.952;100.608;2023-04-10T11:19:08;1007.19;;;34.11;52.13
37170;BME280;23062;13.952;100.608;2023-04-10T11:23:37;1007.23;;;34.06;52.71
37170;BME280;23062;13.952;100.608;2023-04-10T11:28:03;1007.31;;;34.08;52.30
37170;BME280;23062;13.952;100.608;2023-04-10T11:32:39;1007.34;;;34.04;52.59
37170;BME280;23062;13.952;100.608;2023-04-10T11:41:38;1007.50;;;34.00;53.07
37170;BME280;23062;13.952;100.608;2023-04-10T11:46:05;1007.59;;;33.95;53.27
37170;BME280;23062;13.952;100.608;2023-04-10T11:50:30;1007.64;;;33.98;53.41
37170;BME280;23062;13.952;100.608;2023-04-10T11:54:56;1007.78;;;33.95;54.23
37170;BME280;23062;13.952;100.608;2023-04-10T11:59:25;1007.79;;;33.94;54.88
37170;BME280;23062;13.952;100.608;2023-04-10T12:03:50;1007.83;;;33.99;55.29
37170;BME280;23062;13.952;100.608;2023-04-10T12:08:18;1007.87;;;33.97;55.82
37170;BME280;23062;13.952;100.608;2023-04-10T12:12:45;1007.93;;;33.93;55.92
37170;BME280;23062;13.952;100.608;2023-04-10T12:17:14;1008.09;;;33.84;55.98
37170;BME280;23062;13.952;100.608;2023-04-10T12:21:43;1008.15;;;33.88;55.99
37170;BME280;23062;13.952;100.608;2023-04-10T12:26:16;1008.26;;;33.86;56.17
37170;BME280;23062;13.952;100.608;2023-04-10T12:30:46;1008.37;;;33.82;56.31
37170;BME280;23062;13.952;100.608;2023-04-10T12:35:11;1008.49;;;33.84;56.50
37170;BME280;23062;13.952;100.608;2023-04-10T12:39:36;1008.55;;;33.88;56.69
37170;BME280;23062;13.952;100.608;2023-04-10T12:44:11;1008.65;;;33.85;56.57
37170;BME280;23062;13.952;100.608;2023-04-10T12:48:36;1008.73;;;33.82;57.49
37170;BME280;23062;13.952;100.608;2023-04-10T12:53:09;1008.81;;;33.83;56.89
37170;BME280;23062;13.952;100.608;2023-04-10T12:57:37;1008.79;;;33.79;56.96
37170;BME280;23062;13.952;100.608;2023-04-10T13:02:05;1008.78;;;33.81;56.83
37170;BME280;23062;13.952;100.608;2023-04-10T13:06:40;1008.82;;;33.84;56.82
37170;BME280;23062;13.952;100.608;2023-04-10T13:10:59;1008.80;;;33.83;56.84
37170;BME280;23062;13.952;100.608;2023-04-10T13:15:32;1008.92;;;33.87;56.85
37170;BME280;23062;13.952;100.608;2023-04-10T13:19:57;1009.01;;;33.89;57.00
37170;BME280;23062;13.952;100.608;2023-04-10T13:24:22;1009.00;;;33.86;57.04
37170;BME280;23062;13.952;100.608;2023-04-10T13:28:47;1008.97;;;33.86;57.21
37170;BME280;23062;13.952;100.608;2023-04-10T13:33:12;1009.05;;;33.84;57.11
37170;BME280;23062;13.952;100.608;2023-04-10T13:37:38;1009.11;;;33.88;57.26
37170;BME280;23062;13.952;100.608;2023-04-10T13:42:03;1009.13;;;33.87;57.28
37170;BME280;23062;13.952;100.608;2023-04-10T13:46:28;1009.16;;;33.88;57.40
37170;BME280;23062;13.952;100.608;2023-04-10T13:51:00;1009.15;;;33.86;57.40
37170;BME280;23062;13.952;100.608;2023-04-10T13:55:24;1009.21;;;33.87;57.45
37170;BME280;23062;13.952;100.608;2023-04-10T13:59:49;1009.20;;;33.82;57.68
37170;BME280;23062;13.952;100.608;2023-04-10T14:04:15;1009.24;;;33.85;57.67
37170;BME280;23062;13.952;100.608;2023-04-10T14:08:42;1009.29;;;33.84;57.76
37170;BME280;23062;13.952;100.608;2023-04-10T14:13:07;1009.38;;;33.84;57.73
37170;BME280;23062;13.952;100.608;2023-04-10T14:17:33;1009.45;;;33.82;57.95
37170;BME280;23062;13.952;100.608;2023-04-10T14:21:59;1009.59;;;33.79;58.03
37170;BME280;23062;13.952;100.608;2023-04-10T14:26:25;1009.57;;;33.97;57.39
37170;BME280;23062;13.952;100.608;2023-04-10T14:30:52;1009.55;;;34.11;56.91
37170;BME280;23062;13.952;100.608;2023-04-10T14:35:17;1009.60;;;34.14;57.30
37170;BME280;23062;13.952;100.608;2023-04-10T14:39:42;1009.65;;;34.14;57.11
37170;BME280;23062;13.952;100.608;2023-04-10T14:44:10;1009.73;;;34.13;57.18
37170;BME280;23062;13.952;100.608;2023-04-10T14:48:35;1009.77;;;34.16;57.01
37170;BME280;23062;13.952;100.608;2023-04-10T14:53:01;1009.85;;;34.16;57.01
37170;BME280;23062;13.952;100.608;2023-04-10T14:57:30;1009.93;;;34.16;57.02
37170;BME280;23062;13.952;100.608;2023-04-10T15:01:58;1009.91;;;34.16;57.07
37170;BME280;23062;13.952;100.608;2023-04-10T15:06:23;1009.97;;;34.16;57.06
37170;BME280;23062;13.952;100.608;2023-04-10T15:10:54;1009.91;;;34.15;57.14
37170;BME280;23062;13.952;100.608;2023-04-10T15:15:19;1009.92;;;34.14;57.24
37170;BME280;23062;13.952;100.608;2023-04-10T15:19:47;1010.01;;;34.12;57.37
37170;BME280;23062;13.952;100.608;2023-04-10T15:24:13;1010.08;;;34.09;57.53
37170;BME280;23062;13.952;100.608;2023-04-10T15:28:40;1010.10;;;34.11;57.52
37170;BME280;23062;13.952;100.608;2023-04-10T15:33:08;1010.12;;;34.10;57.52
37170;BME280;23062;13.952;100.608;2023-04-10T15:37:35;1010.11;;;34.11;57.61
37170;BME280;23062;13.952;100.608;2023-04-10T15:41:59;1010.10;;;34.08;57.70
37170;BME280;23062;13.952;100.608;2023-04-10T15:46:24;1010.09;;;34.08;57.84
37170;BME280;23062;13.952;100.608;2023-04-10T15:50:51;1010.14;;;34.07;57.66
37170;BME280;23062;13.952;100.608;2023-04-10T15:55:18;1010.08;;;34.06;57.77
37170;BME280;23062;13.952;100.608;2023-04-10T15:59:43;1010.05;;;34.06;57.74
37170;BME280;23062;13.952;100.608;2023-04-10T16:04:08;1009.99;;;34.06;58.00
37170;BME280;23062;13.952;100.608;2023-04-10T16:08:35;1010.01;;;34.06;58.11
37170;BME280;23062;13.952;100.608;2023-04-10T16:13:00;1010.04;;;34.05;57.97
37170;BME280;23062;13.952;100.608;2023-04-10T16:17:26;1010.05;;;34.05;58.03
37170;BME280;23062;13.952;100.608;2023-04-10T16:21:51;1010.06;;;34.04;58.15
37170;BME280;23062;13.952;100.608;2023-04-10T16:26:17;1010.00;;;34.03;58.16
37170;BME280;23062;13.952;100.608;2023-04-10T16:30:42;1009.99;;;34.01;58.07
37170;BME280;23062;13.952;100.608;2023-04-10T16:35:07;1009.95;;;34.01;58.27
37170;BME280;23062;13.952;100.608;2023-04-10T16:39:33;1009.95;;;34.00;58.38
37170;BME280;23062;13.952;100.608;2023-04-10T16:43:58;1009.96;;;33.98;58.28
37170;BME280;23062;13.952;100.608;2023-04-10T16:48:23;1009.95;;;33.98;58.34
37170;BME280;23062;13.952;100.608;2023-04-10T16:52:48;1009.98;;;33.97;58.22
37170;BME280;23062;13.952;100.608;2023-04-10T16:57:13;1009.89;;;33.97;58.21
37170;BME280;23062;13.952;100.608;2023-04-10T17:01:38;1009.87;;;33.96;58.26
37170;BME280;23062;13.952;100.608;2023-04-10T17:06:03;1009.76;;;33.95;58.33
37170;BME280;23062;13.952;100.608;2023-04-10T17:10:29;1009.77;;;33.94;58.17
37170;BME280;23062;13.952;100.608;2023-04-10T17:14:54;1009.73;;;33.93;58.07
37170;BME280;23062;13.952;100.608;2023-04-10T17:19:24;1009.76;;;33.92;57.99
37170;BME280;23062;13.952;100.608;2023-04-10T17:23:53;1009.77;;;33.90;57.66
37170;BME280;23062;13.952;100.608;2023-04-10T17:28:21;1009.75;;;33.90;57.70
37170;BME280;23062;13.952;100.608;2023-04-10T17:32:46;1009.65;;;33.89;57.69
37170;BME280;23062;13.952;100.608;2023-04-10T17:37:13;1009.60;;;33.89;57.67
37170;BME280;23062;13.952;100.608;2023-04-10T17:41:41;1009.59;;;33.89;57.66
37170;BME280;23062;13.952;100.608;2023-04-10T17:46:06;1009.57;;;33.87;57.72
37170;BME280;23062;13.952;100.608;2023-04-10T17:50:41;1009.53;;;33.86;57.80
37170;BME280;23062;13.952;100.608;2023-04-10T17:55:08;1009.53;;;33.85;57.79
37170;BME280;23062;13.952;100.608;2023-04-10T17:59:36;1009.49;;;33.85;57.82
37170;BME280;23062;13.952;100.608;2023-04-10T18:04:01;1009.39;;;33.84;57.78
37170;BME280;23062;13.952;100.608;2023-04-10T18:08:33;1009.35;;;33.82;57.81
37170;BME280;23062;13.952;100.608;2023-04-10T18:12:58;1009.32;;;33.82;57.68
37170;BME280;23062;13.952;100.608;2023-04-10T18:17:27;1009.34;;;33.82;57.67
37170;BME280;23062;13.952;100.608;2023-04-10T18:21:55;1009.29;;;33.80;57.68
37170;BME280;23062;13.952;100.608;2023-04-10T18:26:21;1009.31;;;33.80;57.74
37170;BME280;23062;13.952;100.608;2023-04-10T18:30:47;1009.30;;;33.79;57.70
37170;BME280;23062;13.952;100.608;2023-04-10T18:35:12;1009.27;;;33.79;57.82
37170;BME280;23062;13.952;100.608;2023-04-10T18:39:38;1009.21;;;33.78;57.86
37170;BME280;23062;13.952;100.608;2023-04-10T18:44:03;1009.17;;;33.76;58.00
37170;BME280;23062;13.952;100.608;2023-04-10T18:48:29;1009.08;;;33.76;58.13
37170;BME280;23062;13.952;100.608;2023-04-10T18:52:55;1009.12;;;33.75;58.22
37170;BME280;23062;13.952;100.608;2023-04-10T18:57:20;1009.08;;;33.76;58.23
37170;BME280;23062;13.952;100.608;2023-04-10T19:01:45;1009.15;;;33.74;58.41
37170;BME280;23062;13.952;100.608;2023-04-10T19:06:29;1009.19;;;33.74;58.26
37170;BME280;23062;13.952;100.608;2023-04-10T19:10:54;1009.18;;;33.73;58.36
37170;BME280;23062;13.952;100.608;2023-04-10T19:15:20;1009.16;;;33.71;58.37
37170;BME280;23062;13.952;100.608;2023-04-10T19:19:45;1009.11;;;33.72;58.28
37170;BME280;23062;13.952;100.608;2023-04-10T19:24:10;1009.09;;;33.69;58.31
37170;BME280;23062;13.952;100.608;2023-04-10T19:28:35;1009.09;;;33.68;58.48
37170;BME280;23062;13.952;100.608;2023-04-10T19:33:00;1009.02;;;33.69;58.62
37170;BME280;23062;13.952;100.608;2023-04-10T19:37:24;1008.93;;;33.68;58.39
37170;BME280;23062;13.952;100.608;2023-04-10T19:41:50;1008.94;;;33.67;58.50
37170;BME280;23062;13.952;100.608;2023-04-10T19:46:18;1008.89;;;33.66;58.45
37170;BME280;23062;13.952;100.608;2023-04-10T19:50:44;1008.84;;;33.66;58.42
37170;BME280;23062;13.952;100.608;2023-04-10T19:55:09;1008.73;;;33.64;58.38
37170;BME280;23062;13.952;100.608;2023-04-10T19:59:34;1008.70;;;33.63;58.43
37170;BME280;23062;13.952;100.608;2023-04-10T20:03:59;1008.66;;;33.64;58.55
37170;BME280;23062;13.952;100.608;2023-04-10T20:08:30;1008.56;;;33.62;58.38
37170;BME280;23062;13.952;100.608;2023-04-10T20:12:55;1008.53;;;33.61;58.38
37170;BME280;23062;13.952;100.608;2023-04-10T20:17:23;1008.55;;;33.61;58.42
37170;BME280;23062;13.952;100.608;2023-04-10T20:21:48;1008.58;;;33.60;58.44
37170;BME280;23062;13.952;100.608;2023-04-10T20:26:13;1008.54;;;33.60;58.64
37170;BME280;23062;13.952;100.608;2023-04-10T20:30:41;1008.56;;;33.58;58.46
37170;BME280;23062;13.952;100.608;2023-04-10T20:35:08;1008.53;;;33.57;58.51
37170;BME280;23062;13.952;100.608;2023-04-10T20:39:33;1008.48;;;33.58;58.53
37170;BME280;23062;13.952;100.608;2023-04-10T20:44:06;1008.37;;;33.57;58.67
37170;BME280;23062;13.952;100.608;2023-04-10T20:48:31;1008.32;;;33.58;58.60
37170;BME280;23062;13.952;100.608;2023-04-10T20:52:56;1008.32;;;33.56;58.66
37170;BME280;23062;13.952;100.608;2023-04-10T20:57:21;1008.38;;;33.56;58.64
37170;BME280;23062;13.952;100.608;2023-04-10T21:01:52;1008.40;;;33.55;58.69
37170;BME280;23062;13.952;100.608;2023-04-10T21:06:17;1008.39;;;33.55;58.60
37170;BME280;23062;13.952;100.608;2023-04-10T21:10:42;1008.37;;;33.54;58.61
37170;BME280;23062;13.952;100.608;2023-04-10T21:15:14;1008.40;;;33.53;58.63
37170;BME280;23062;13.952;100.608;2023-04-10T21:19:39;1008.44;;;33.53;58.62
37170;BME280;23062;13.952;100.608;2023-04-10T21:24:05;1008.58;;;33.53;58.61
37170;BME280;23062;13.952;100.608;2023-04-10T21:28:30;1008.60;;;33.53;58.61
37170;BME280;23062;13.952;100.608;2023-04-10T21:33:03;1008.65;;;33.52;58.62
37170;BME280;23062;13.952;100.608;2023-04-10T21:37:31;1008.66;;;33.51;58.67
37170;BME280;23062;13.952;100.608;2023-04-10T21:42:00;1008.69;;;33.50;58.66
37170;BME280;23062;13.952;100.608;2023-04-10T21:46:25;1008.77;;;33.50;58.63
37170;BME280;23062;13.952;100.608;2023-04-10T21:50:51;1008.78;;;33.49;58.65
37170;BME280;23062;13.952;100.608;2023-04-10T21:55:20;1008.80;;;33.48;58.84
37170;BME280;23062;13.952;100.608;2023-04-10T21:59:45;1008.86;;;33.37;59.09
37170;BME280;23062;13.952;100.608;2023-04-10T22:04:09;1008.90;;;33.16;59.93
37170;BME280;23062;13.952;100.608;2023-04-10T22:08:35;1008.93;;;33.11;60.01
37170;BME280;23062;13.952;100.608;2023-04-10T22:13:05;1008.94;;;33.07;60.23
37170;BME280;23062;13.952;100.608;2023-04-10T22:17:30;1008.94;;;32.98;60.51
37170;BME280;23062;13.952;100.608;2023-04-10T22:21:56;1008.99;;;32.93;60.95
37170;BME280;23062;13.952;100.608;2023-04-10T22:26:29;1009.10;;;32.86;60.95
37170;BME280;23062;13.952;100.608;2023-04-10T22:30:55;1009.16;;;32.79;61.33
37170;BME280;23062;13.952;100.608;2023-04-10T22:35:20;1009.22;;;32.79;61.41
37170;BME280;23062;13.952;100.608;2023-04-10T22:39:45;1009.29;;;32.76;61.55
37170;BME280;23062;13.952;100.608;2023-04-10T22:44:10;1009.30;;;32.75;61.75
37170;BME280;23062;13.952;100.608;2023-04-10T22:48:35;1009.36;;;32.74;61.73
37170;BME280;23062;13.952;100.608;2023-04-10T22:53:02;1009.40;;;32.78;61.62
37170;BME280;23062;13.952;100.608;2023-04-10T22:57:28;1009.48;;;32.78;61.62
37170;BME280;23062;13.952;100.608;2023-04-10T23:01:53;1009.55;;;32.63;62.26
37170;BME280;23062;13.952;100.608;2023-04-10T23:06:20;1009.53;;;32.59;62.58
37170;BME280;23062;13.952;100.608;2023-04-10T23:10:44;1009.57;;;32.61;62.45
37170;BME280;23062;13.952;100.608;2023-04-10T23:15:10;1009.66;;;32.70;62.35
37170;BME280;23062;13.952;100.608;2023-04-10T23:19:35;1009.67;;;32.78;62.10
37170;BME280;23062;13.952;100.608;2023-04-10T23:24:01;1009.77;;;32.84;61.89
37170;BME280;23062;13.952;100.608;2023-04-10T23:28:26;1009.83;;;32.81;61.97
37170;BME280;23062;13.952;100.608;2023-04-10T23:32:59;1009.91;;;32.86;61.87
37170;BME280;23062;13.952;100.608;2023-04-10T23:37:24;1009.93;;;32.86;61.98
37170;BME280;23062;13.952;100.608;2023-04-10T23:41:48;1009.97;;;32.89;61.92
37170;BME280;23062;13.952;100.608;2023-04-10T23:46:20;1010.09;;;32.86;62.02
37170;BME280;23062;13.952;100.608;2023-04-10T23:50:45;1010.15;;;32.85;62.14